Time;durP1;ratioP1;P1;durP2;ratioP2;P2;SDS_P1;SDS_P2;PMS_P1;PMS_P2;Temp;Humidity;BMP_temperature;BMP_pressure;BME280_temperature;BME280_humidity;BME280_pressure;Samples;Min_cycle;Max_cycle;Signal;HPM_P1;HPM_P2
2022/05/01 00:00:59;;;;;;;16.80;14.93;;;;;;;5.17;85.45;102589.19;10378854;28;20041;-71
2022/05/01 00:06:03;;;;;;;22.42;16.05;;;;;;;5.17;85.60;102584.72;10361725;28;20469;-71
2022/05/01 00:11:04;;;;;;;22.50;16.10;;;;;;;5.15;85.43;102583.97;10377699;28;20146;-71
2022/05/01 00:16:05;;;;;;;28.15;17.35;;;;;;;5.12;85.87;102577.00;10377187;28;20033;-72
2022/05/01 00:21:05;;;;;;;26.50;19.15;;;;;;;5.01;85.52;102568.94;10359072;28;20512;-71
2022/05/01 00:26:06;;;;;;;22.33;16.90;;;;;;;4.98;85.48;102585.28;10377570;28;20045;-71
2022/05/01 00:31:07;;;;;;;24.27;17.52;;;;;;;4.99;85.75;102578.94;10377632;28;20355;-71
2022/05/01 00:36:25;;;;;;;22.42;17.92;;;;;;;4.93;85.66;102575.88;10358730;28;20446;-71
2022/05/01 00:41:27;;;;;;;24.02;18.67;;;;;;;4.85;85.71;102573.78;10374978;28;20518;-70
2022/05/01 00:46:28;;;;;;;21.90;16.85;;;;;;;4.83;85.61;102570.38;10374332;28;20470;-71
2022/05/01 00:51:30;;;;;;;23.25;17.10;;;;;;;4.78;86.03;102556.44;10374111;28;20030;-71
2022/05/01 00:56:30;;;;;;;21.60;18.52;;;;;;;4.73;86.03;102559.50;10375565;28;20048;-71
2022/05/01 01:01:32;;;;;;;20.80;17.13;;;;;;;4.77;86.03;102563.63;10357496;28;20033;-71
2022/05/01 01:06:34;;;;;;;25.23;17.92;;;;;;;4.69;85.77;102552.66;10357047;28;20125;-71
2022/05/01 01:11:36;;;;;;;24.45;17.02;;;;;;;4.62;85.48;102554.94;10375895;28;20092;-72
2022/05/01 01:16:37;;;;;;;22.60;18.73;;;;;;;4.56;85.36;102549.19;10358008;28;20038;-72
2022/05/01 01:21:37;;;;;;;21.67;17.92;;;;;;;4.56;85.70;102554.56;10357064;28;20128;-71
2022/05/01 01:26:38;;;;;;;26.45;19.90;;;;;;;4.47;85.44;102541.84;10374715;28;20030;-71
2022/05/01 01:31:41;;;;;;;32.10;19.63;;;;;;;4.43;85.49;102546.59;10374062;28;20033;-71
2022/05/01 01:36:42;;;;;;;25.17;18.30;;;;;;;4.40;86.09;102534.28;10357993;28;20116;-71
2022/05/01 01:41:42;;;;;;;27.13;20.63;;;;;;;4.42;85.44;102543.06;10373704;28;20072;-70
2022/05/01 01:46:44;;;;;;;31.30;21.63;;;;;;;4.37;85.30;102547.94;10374598;28;20085;-70
2022/05/01 01:51:44;;;;;;;30.92;19.08;;;;;;;4.31;85.64;102543.03;10357327;28;20038;-71
2022/05/01 01:56:44;;;;;;;23.52;18.42;;;;;;;4.31;85.99;102553.75;10340319;28;20477;-70
2022/05/01 02:01:45;;;;;;;30.23;22.92;;;;;;;4.31;86.06;102544.88;10374613;28;20136;-71
2022/05/01 02:06:45;;;;;;;28.17;20.23;;;;;;;4.28;86.13;102545.09;10357155;28;20476;-70
2022/05/01 02:11:46;;;;;;;25.73;21.00;;;;;;;4.23;86.68;102540.06;10374370;28;20033;-70
2022/05/01 02:16:48;;;;;;;26.55;19.55;;;;;;;4.21;86.46;102531.28;10380724;28;20145;-71
2022/05/01 02:21:49;;;;;;;27.30;19.75;;;;;;;4.21;86.69;102536.63;10380393;28;20113;-71
2022/05/01 02:26:49;;;;;;;27.40;20.20;;;;;;;4.18;86.65;102527.03;10381430;28;20124;-71
2022/05/01 02:31:53;;;;;;;24.33;20.13;;;;;;;4.18;86.49;102527.03;10380274;28;20042;-70
2022/05/01 02:36:55;;;;;;;38.33;22.42;;;;;;;4.12;86.48;102526.63;10382455;28;20034;-70
2022/05/01 02:41:56;;;;;;;33.38;22.77;;;;;;;4.08;86.63;102514.41;10380962;28;20545;-71
2022/05/01 02:46:56;;;;;;;31.42;20.90;;;;;;;4.04;86.22;102508.41;10380319;28;20049;-71
2022/05/01 02:51:57;;;;;;;26.75;21.83;;;;;;;3.96;86.49;102511.69;10380910;28;20213;-71
2022/05/01 02:56:57;;;;;;;34.22;21.33;;;;;;;3.89;86.48;102515.81;10380919;28;20394;-71
2022/05/01 03:01:57;;;;;;;26.05;19.95;;;;;;;3.86;87.07;102512.47;10363259;28;20037;-70
2022/05/01 03:06:58;;;;;;;37.05;22.08;;;;;;;3.84;86.33;102512.59;10379703;28;20084;-70
2022/05/01 03:11:58;;;;;;;32.08;20.50;;;;;;;3.85;86.59;102500.06;10379010;28;20048;-70
2022/05/01 03:16:58;;;;;;;29.25;21.10;;;;;;;3.85;86.74;102500.91;10379275;28;20034;-70
2022/05/01 03:22:11;;;;;;;30.20;23.20;;;;;;;3.85;86.79;102498.22;10379240;28;20030;-71
2022/05/01 03:27:11;;;;;;;36.72;22.55;;;;;;;3.84;87.05;102491.16;10363275;28;20041;-70
2022/05/01 03:32:12;;;;;;;32.58;24.02;;;;;;;3.82;86.91;102501.13;10379086;28;20037;-70
2022/05/01 03:37:12;;;;;;;38.92;22.35;;;;;;;3.77;86.92;102489.91;10377380;28;20137;-70
2022/05/01 03:42:12;;;;;;;31.90;23.17;;;;;;;3.74;86.82;102490.13;10361264;28;20041;-70
2022/05/01 03:47:13;;;;;;;37.15;23.88;;;;;;;3.76;87.65;102484.66;10377645;28;20062;-71
2022/05/01 03:52:13;;;;;;;34.95;23.35;;;;;;;3.71;87.39;102488.53;10377935;28;20044;-70
2022/05/01 03:57:14;;;;;;;30.35;21.48;;;;;;;3.68;86.95;102479.88;10378260;28;20362;-71
2022/05/01 04:02:17;;;;;;;31.13;22.48;;;;;;;3.70;87.15;102480.59;10376770;28;20030;-70
2022/05/01 04:07:17;;;;;;;29.10;21.48;;;;;;;3.76;87.97;102481.97;10378483;28;20045;-70
2022/05/01 04:12:18;;;;;;;29.88;23.60;;;;;;;3.90;87.99;102489.84;10376558;28;20097;-71
2022/05/01 04:17:18;;;;;;;30.88;21.65;;;;;;;3.94;88.11;102489.50;10378007;28;20069;-70
2022/05/01 04:22:19;;;;;;;31.17;23.50;;;;;;;4.06;88.58;102495.78;10375589;28;20120;-71
2022/05/01 04:27:20;;;;;;;29.58;24.77;;;;;;;4.20;88.45;102494.72;10360660;28;20370;-70
2022/05/01 04:32:21;;;;;;;36.58;22.30;;;;;;;4.36;88.83;102489.03;10374604;28;20041;-70
2022/05/01 04:37:22;;;;;;;33.95;24.38;;;;;;;4.56;89.17;102487.47;10375785;28;20046;-70
2022/05/01 04:42:23;;;;;;;40.55;25.50;;;;;;;4.78;89.41;102487.50;10376546;28;20381;-70
2022/05/01 04:47:23;;;;;;;30.52;23.45;;;;;;;5.03;89.57;102486.44;10375526;28;20062;-70
2022/05/01 04:52:24;;;;;;;31.17;23.13;;;;;;;5.25;89.49;102490.94;10376143;28;20034;-70
2022/05/01 04:57:24;;;;;;;36.72;27.05;;;;;;;5.50;90.09;102494.31;10342902;28;20034;-70
2022/05/01 05:02:25;;;;;;;31.45;24.60;;;;;;;5.77;90.02;102501.94;10375892;28;20065;-70
2022/05/01 05:07:25;;;;;;;51.80;26.17;;;;;;;6.07;90.51;102500.44;10375088;28;20041;-70
2022/05/01 05:12:25;;;;;;;39.58;26.73;;;;;;;6.37;90.51;102505.03;10373897;28;20022;-71
2022/05/01 05:17:27;;;;;;;37.30;24.73;;;;;;;6.67;90.93;102512.34;10357915;28;20120;-71
2022/05/01 05:22:27;;;;;;;37.05;26.35;;;;;;;6.96;91.43;102515.19;10374837;28;20092;-71
2022/05/01 05:27:28;;;;;;;26.35;23.52;;;;;;;7.37;91.98;102510.66;10375012;28;20045;-71
2022/05/01 05:32:28;;;;;;;32.63;26.20;;;;;;;7.95;92.20;102513.50;10375442;28;20061;-71
2022/05/01 05:37:29;;;;;;;36.58;27.27;;;;;;;8.44;92.68;102524.31;10374679;28;20041;-71
2022/05/01 05:42:29;;;;;;;35.47;23.55;;;;;;;8.77;92.31;102518.41;10376191;28;20026;-71
2022/05/01 05:47:29;;;;;;;33.03;22.85;;;;;;;9.03;93.42;102528.56;10357252;28;20510;-71
2022/05/01 05:52:30;;;;;;;33.88;23.73;;;;;;;9.30;96.16;102534.00;10383113;28;20393;-71
2022/05/01 05:57:30;;;;;;;33.15;21.83;;;;;;;10.03;93.85;102538.56;10348688;28;20061;-71
2022/05/01 06:02:31;;;;;;;27.95;19.38;;;;;;;10.54;93.98;102537.03;10382341;28;20088;-71
2022/05/01 06:07:31;;;;;;;21.27;18.20;;;;;;;10.42;94.51;102533.72;10365137;28;20040;-73
2022/05/01 06:12:31;;;;;;;25.08;16.63;;;;;;;10.05;95.70;102552.81;10381989;28;20332;-71
2022/05/01 06:17:32;;;;;;;18.75;15.88;;;;;;;9.74;97.77;102553.16;10382348;28;20088;-71
2022/05/01 06:22:32;;;;;;;18.85;13.40;;;;;;;9.70;98.28;102546.34;10381920;28;20061;-72
2022/05/01 06:27:33;;;;;;;21.63;15.10;;;;;;;9.77;97.11;102549.28;10381920;28;20033;-71
2022/05/01 06:32:33;;;;;;;26.30;16.92;;;;;;;9.92;97.54;102542.38;10380523;28;20033;-71
2022/05/01 06:37:35;;;;;;;25.17;17.15;;;;;;;10.14;96.63;102545.59;10380388;28;20034;-72
2022/05/01 06:42:35;;;;;;;15.57;13.98;;;;;;;10.28;96.60;102531.56;10378922;28;20037;-71
2022/05/01 06:47:35;;;;;;;20.58;15.98;;;;;;;10.36;96.67;102536.19;10380759;28;20129;-71
2022/05/01 06:52:36;;;;;;;18.95;13.80;;;;;;;10.77;95.63;102539.22;10362286;28;20084;-72
2022/05/01 06:57:36;;;;;;;26.05;17.95;;;;;;;11.37;95.14;102536.53;10381474;28;20038;-72
2022/05/01 07:02:47;;;;;;;15.75;14.07;;;;;;;11.47;94.08;102536.41;10379730;28;20038;-72
2022/05/01 07:07:49;;;;;;;17.42;13.02;;;;;;;11.49;93.86;102534.38;10380318;28;20041;-71
2022/05/01 07:12:50;;;;;;;21.02;14.35;;;;;;;11.84;93.80;102525.16;10379718;28;20037;-72
2022/05/01 07:17:50;;;;;;;15.77;12.93;;;;;;;12.45;94.16;102525.78;10362988;28;20030;-71
2022/05/01 07:22:51;;;;;;;14.20;12.32;;;;;;;13.20;92.83;102529.03;10380157;28;20042;-72
2022/05/01 07:27:51;;;;;;;18.77;11.25;;;;;;;13.81;92.49;102525.72;10360932;28;20415;-72
2022/05/01 07:32:51;;;;;;;14.07;10.48;;;;;;;14.85;88.92;102529.69;10361143;28;20038;-72
2022/05/01 07:37:52;;;;;;;20.23;10.20;;;;;;;16.09;87.35;102527.97;10362200;28;20144;-72
2022/05/01 07:42:52;;;;;;;13.07;9.45;;;;;;;17.22;87.86;102525.31;10378311;28;20034;-72
2022/05/01 07:47:53;;;;;;;9.50;7.75;;;;;;;17.69;83.03;102520.91;10361508;28;20050;-72
2022/05/01 07:52:53;;;;;;;6.70;5.97;;;;;;;17.46;76.19;102513.88;10378148;28;20038;-72
2022/05/01 07:57:53;;;;;;;6.80;5.97;;;;;;;17.55;78.88;102518.13;10377292;28;20037;-72
2022/05/01 08:08:14;;;;;;;14.93;7.72;;;;;;;18.14;62.86;102508.41;10377572;28;20030;-72
2022/05/01 08:13:14;;;;;;;15.52;5.95;;;;;;;19.11;53.88;102504.13;10377774;28;20034;-72
2022/05/01 08:23:38;;;;;;;4.15;3.65;;;;;;;18.22;59.50;102502.72;10376266;28;20117;-73
2022/05/01 08:28:39;;;;;;;2.90;2.75;;;;;;;16.33;57.43;102501.28;10359573;28;20030;-73
2022/05/01 08:33:39;;;;;;;6.15;4.13;;;;;;;15.54;60.33;102494.78;10359177;28;20443;-72
2022/05/01 08:38:40;;;;;;;5.70;4.25;;;;;;;15.87;62.53;102496.22;10376315;28;20125;-72
2022/05/01 08:43:40;;;;;;;6.53;5.18;;;;;;;16.51;63.91;102507.13;10375929;28;20069;-73
2022/05/01 08:48:47;;;;;;;3.65;3.35;;;;;;;17.76;63.35;102487.00;10376504;28;20058;-73
2022/05/01 08:53:48;;;;;;;4.38;3.22;;;;;;;18.61;58.54;102484.56;10375708;28;20026;-73
2022/05/01 08:58:48;;;;;;;5.85;3.85;;;;;;;18.12;53.05;102491.31;10359237;28;20038;-74
2022/05/01 09:03:49;;;;;;;3.67;3.38;;;;;;;17.74;50.35;102490.97;10341512;28;20489;-74
2022/05/01 09:08:51;;;;;;;5.13;2.90;;;;;;;18.42;50.83;102489.00;10375804;28;20046;-73
2022/05/01 09:13:51;;;;;;;5.43;4.90;;;;;;;18.66;54.84;102492.16;10375862;28;20052;-74
2022/05/01 09:18:51;;;;;;;6.53;4.18;;;;;;;17.53;49.54;102497.47;10356951;28;20045;-72
2022/05/01 09:23:52;;;;;;;3.80;3.15;;;;;;;16.70;55.36;102490.03;10373952;28;20025;-73
2022/05/01 09:28:53;;;;;;;5.60;4.20;;;;;;;17.04;57.05;102507.53;10374780;28;20034;-74
2022/05/01 09:34:17;;;;;;;12.20;4.38;;;;;;;16.87;55.16;102498.78;10375156;28;20038;-73
2022/05/01 09:39:21;;;;;;;5.53;3.47;;;;;;;17.21;58.94;102502.59;10358047;28;20034;-73
2022/05/01 09:44:22;;;;;;;5.22;4.80;;;;;;;17.72;59.16;102506.81;10374801;28;20438;-74
2022/05/01 09:49:23;;;;;;;4.43;3.78;;;;;;;18.09;56.26;102502.69;10341914;28;20050;-75
2022/05/01 09:54:24;;;;;;;6.07;4.55;;;;;;;18.29;58.09;102498.09;10374368;28;20038;-74
2022/05/01 09:59:26;;;;;;;5.32;4.88;;;;;;;18.91;49.17;102484.97;10372880;28;20398;-73
2022/05/01 10:04:26;;;;;;;6.90;4.50;;;;;;;18.31;45.11;102498.72;10374515;28;20030;-74
2022/05/01 10:09:28;;;;;;;7.25;5.15;;;;;;;16.91;48.22;102491.88;10372870;28;20038;-73
2022/05/01 10:14:28;;;;;;;10.38;4.93;;;;;;;18.09;54.05;102483.50;10357675;28;20038;-74
2022/05/01 10:19:29;;;;;;;10.80;5.88;;;;;;;19.58;53.13;102479.25;10373648;28;20029;-74
2022/05/01 10:24:29;;;;;;;7.80;5.72;;;;;;;19.37;40.37;102467.53;10372434;28;20422;-74
2022/05/01 10:32:20;;;;;;;5.50;5.00;;;;;;;20.36;40.29;102462.47;10356881;28;20045;-74
2022/05/01 10:35:22;;;;;;;8.32;4.35;;;;;;;21.20;40.21;102462.88;10376386;28;20038;-73
2022/05/01 10:40:22;;;;;;;6.60;5.95;;;;;;;21.41;36.51;102451.44;10382517;28;20026;-73
2022/05/01 10:45:22;;;;;;;5.30;4.15;;;;;;;20.89;36.76;102450.94;10381094;28;20034;-73
2022/05/01 10:50:24;;;;;;;11.02;6.28;;;;;;;20.85;38.18;102447.81;10380623;28;20056;-68
2022/05/01 10:55:25;;;;;;;7.70;5.05;;;;;;;21.55;39.99;102436.38;10378954;28;20042;-69
2022/05/01 11:00:25;;;;;;;5.22;4.78;;;;;;;21.79;34.06;102430.94;10381024;28;20033;-70
2022/05/01 11:05:44;;;;;;;5.75;5.15;;;;;;;21.68;41.15;102423.47;10346053;28;20045;-73
2022/05/01 11:10:44;;;;;;;4.57;4.18;;;;;;;21.13;35.95;102419.72;10361675;28;20029;-74
2022/05/01 11:15:49;;;;;;;4.00;3.70;;;;;;;20.84;34.54;102420.53;10362184;28;20069;-72
2022/05/01 11:20:50;;;;;;;7.90;3.47;;;;;;;21.29;42.34;102406.41;10379663;28;20038;-72
2022/05/01 11:25:50;;;;;;;4.05;3.75;;;;;;;21.82;42.56;102405.63;10379204;28;20038;-72
2022/05/01 11:30:50;;;;;;;4.32;3.88;;;;;;;22.20;43.46;102391.44;10363474;28;20330;-77
2022/05/01 11:35:57;;;;;;;7.80;4.15;;;;;;;22.48;43.16;102376.09;10362074;28;20087;-73
2022/05/01 11:41:00;;;;;;;2.55;2.42;;;;;;;22.92;43.32;102374.56;10379729;28;20037;-73
2022/05/01 11:46:01;;;;;;;6.10;4.05;;;;;;;22.78;43.85;102370.41;10376676;28;20034;-73
2022/05/01 11:51:02;;;;;;;5.78;4.15;;;;;;;22.37;48.03;102365.91;10360316;28;20192;-74
2022/05/01 12:06:45;;;;;;;4.53;3.80;;;;;;;21.42;43.34;102351.13;10348745;28;20033;-75
2022/05/01 12:11:46;;;;;;;4.05;3.72;;;;;;;21.87;41.13;102345.09;10378905;28;20030;-75
2022/05/01 12:16:47;;;;;;;5.45;4.63;;;;;;;21.20;32.73;102334.25;10377789;28;20038;-74
2022/05/01 12:21:47;;;;;;;3.45;3.00;;;;;;;21.51;38.26;102330.44;10359987;28;20371;-76
2022/05/01 12:26:49;;;;;;;3.88;3.58;;;;;;;21.94;39.68;102323.75;10377548;28;20470;-77
2022/05/01 12:32:16;;;;;;;4.95;4.45;;;;;;;20.87;33.11;102335.53;10358714;28;20088;-74
2022/05/01 12:37:17;;;;;;;4.07;3.78;;;;;;;21.01;36.56;102314.16;10367476;28;20486;-73
2022/05/01 12:47:41;;;;;;;4.35;3.70;;;;;;;23.05;37.56;102303.56;10374843;28;20076;-73
2022/05/01 12:52:41;;;;;;;4.95;3.80;;;;;;;23.32;41.96;102301.84;10375643;28;20068;-74
2022/05/01 12:57:54;;;;;;;14.85;3.70;;;;;;;24.69;38.06;102299.53;10375044;28;20077;-72
2022/05/01 13:02:57;;;;;;;4.30;3.95;;;;;;;24.90;35.58;102297.03;10375299;28;20348;-75
2022/05/01 13:07:58;;;;;;;6.10;3.78;;;;;;;23.62;35.12;102290.50;10376042;28;20033;-76
2022/05/01 13:12:59;;;;;;;3.90;3.60;;;;;;;22.59;40.36;102297.94;10358781;28;20419;-77
2022/05/01 13:18:01;;;;;;;6.18;4.20;;;;;;;21.69;40.97;102290.06;10374346;28;20048;-74
2022/05/01 13:23:02;;;;;;;4.72;3.85;;;;;;;21.16;41.46;102279.88;10341144;28;20042;-73
2022/05/01 13:28:03;;;;;;;4.30;4.00;;;;;;;21.35;44.42;102282.34;10375051;28;20034;-73
2022/05/01 13:33:04;;;;;;;5.22;4.75;;;;;;;21.43;44.01;102283.91;10372928;28;20029;-75
2022/05/01 13:38:05;;;;;;;5.22;4.78;;;;;;;21.17;44.48;102289.81;10357765;28;20084;-73
2022/05/01 13:48:24;;;;;;;10.93;5.47;;;;;;;21.61;40.41;102280.22;10374635;28;20046;-74
2022/05/01 13:53:25;;;;;;;6.80;4.40;;;;;;;22.35;42.62;102268.72;10358425;28;20030;-73
2022/05/01 13:58:25;;;;;;;5.78;5.30;;;;;;;22.81;41.94;102277.94;10374211;28;20435;-74
2022/05/01 14:03:26;;;;;;;4.20;3.85;;;;;;;21.88;40.96;102274.25;10374083;28;20430;-74
2022/05/01 14:08:26;;;;;;;11.43;4.78;;;;;;;21.08;42.07;102275.50;10375537;28;20489;-76
2022/05/01 14:13:27;;;;;;;6.25;4.68;;;;;;;20.61;43.49;102273.41;10383408;28;20470;-75
2022/05/01 14:18:27;;;;;;;7.95;4.28;;;;;;;20.37;45.59;102268.81;10381821;28;20097;-75
2022/05/01 14:23:27;;;;;;;9.90;6.40;;;;;;;20.11;45.76;102268.03;10364691;28;20030;-74
2022/05/01 14:28:28;;;;;;;6.13;5.53;;;;;;;19.42;46.03;102272.63;10383701;28;20041;-75
2022/05/01 14:33:37;;;;;;;6.18;5.32;;;;;;;19.26;46.57;102257.53;10381900;28;20046;-74
2022/05/01 14:38:51;;;;;;;6.50;5.93;;;;;;;19.41;46.63;102259.97;10364531;28;20073;-73
2022/05/01 14:43:54;;;;;;;5.80;5.30;;;;;;;19.56;44.53;102256.91;10381458;28;20036;-74
2022/05/01 14:49:03;;;;;;;6.90;5.90;;;;;;;19.51;45.32;102248.47;10322740;28;20053;-74
2022/05/01 14:54:03;;;;;;;6.05;5.03;;;;;;;19.42;45.91;102244.31;10380029;28;20034;-74
2022/05/01 15:09:42;;;;;;;8.40;6.38;;;;;;;18.22;48.89;102238.63;10379108;28;20033;-74
2022/05/01 15:14:42;;;;;;;8.43;6.43;;;;;;;18.19;48.15;102239.06;10379348;28;20045;-74
2022/05/01 15:19:58;;;;;;;7.63;6.35;;;;;;;18.28;49.10;102235.03;10380012;28;20093;-73
2022/05/01 15:25:08;;;;;;;7.22;6.45;;;;;;;18.09;48.59;102236.75;10379290;28;20022;-74
2022/05/01 15:30:09;;;;;;;7.75;6.25;;;;;;;18.01;49.88;102231.53;10379286;28;20061;-73
2022/05/01 15:35:09;;;;;;;6.28;5.68;;;;;;;17.93;50.07;102235.31;10379119;28;20533;-74
2022/05/01 15:40:10;;;;;;;11.55;7.80;;;;;;;17.49;49.57;102227.78;10361121;28;20049;-74
2022/05/01 15:45:11;;;;;;;11.38;6.45;;;;;;;17.17;50.78;102238.50;10345309;28;20029;-73
2022/05/01 15:55:30;;;;;;;7.38;5.85;;;;;;;16.74;51.39;102241.53;10377479;28;20045;-74
2022/05/01 16:00:32;;;;;;;8.32;6.35;;;;;;;16.61;51.13;102242.31;10377245;28;20064;-73
2022/05/01 16:05:33;;;;;;;6.28;5.72;;;;;;;16.36;51.02;102236.53;10380029;28;20037;-73
2022/05/01 16:10:41;;;;;;;12.35;5.93;;;;;;;16.06;50.96;102233.25;10377365;28;20088;-74
2022/05/01 16:16:03;;;;;;;12.82;6.00;;;;;;;15.59;51.40;102237.50;10377831;28;20034;-73
2022/05/01 16:21:39;;;;;;;6.78;6.20;;;;;;;15.28;52.44;102244.19;10376307;28;20030;-73
2022/05/01 16:26:41;;;;;;;6.68;6.03;;;;;;;15.03;52.21;102243.75;10363100;28;20042;-73
2022/05/01 16:32:10;;;;;;;15.95;6.70;;;;;;;14.69;53.32;102238.13;10376319;28;20038;-73
2022/05/01 16:37:13;;;;;;;10.60;6.32;;;;;;;14.53;53.40;102237.28;10377569;28;20034;-73
2022/05/01 16:42:14;;;;;;;9.98;5.90;;;;;;;14.36;53.42;102233.06;10376054;28;20378;-73
2022/05/01 16:47:15;;;;;;;10.90;5.75;;;;;;;14.13;55.18;102227.72;10375923;28;20124;-73
2022/05/01 16:52:15;;;;;;;14.50;7.35;;;;;;;13.92;54.57;102226.59;10374623;28;20084;-73
2022/05/01 16:57:16;;;;;;;5.15;4.75;;;;;;;13.73;55.50;102219.81;10358196;28;20103;-73
2022/05/01 17:02:24;;;;;;;5.30;4.80;;;;;;;13.55;56.36;102219.31;10358788;28;20042;-73
2022/05/01 17:07:58;;;;;;;5.88;4.95;;;;;;;13.34;57.73;102220.03;10343353;28;20125;-72
2022/05/01 17:13:14;;;;;;;9.10;5.80;;;;;;;13.18;58.37;102226.44;10366622;28;20041;-73
2022/05/01 17:18:17;;;;;;;13.10;5.25;;;;;;;13.06;58.64;102214.28;10343128;28;20080;-73
2022/05/01 17:23:21;;;;;;;4.60;4.20;;;;;;;12.90;57.76;102209.81;10356764;28;20065;-73
2022/05/01 17:28:24;;;;;;;4.82;3.90;;;;;;;12.73;57.55;102206.38;10357560;28;20120;-73
2022/05/01 17:33:25;;;;;;;9.77;5.63;;;;;;;12.63;57.44;102208.44;10342764;28;20037;-73
2022/05/01 17:38:28;;;;;;;6.15;5.30;;;;;;;12.53;57.50;102203.25;10375796;28;20034;-73
2022/05/01 17:43:29;;;;;;;6.47;4.88;;;;;;;12.54;56.95;102212.28;10377522;28;20029;-73
2022/05/01 17:48:34;;;;;;;9.13;4.32;;;;;;;12.49;57.38;102225.53;10364712;28;20061;-73
2022/05/01 17:53:37;;;;;;;5.55;4.18;;;;;;;12.46;58.93;102209.59;10350625;28;20030;-73
2022/05/01 17:58:41;;;;;;;5.03;4.18;;;;;;;12.52;57.10;102220.59;10382548;28;20056;-72
2022/05/01 18:15:07;;;;;;;4.68;3.58;;;;;;;12.26;55.69;102230.91;10382200;28;20125;-73
2022/05/01 18:20:09;;;;;;;9.27;3.33;;;;;;;12.10;54.90;102223.66;10381769;28;20065;-72
2022/05/01 18:25:13;;;;;;;6.65;3.22;;;;;;;11.96;55.19;102222.50;10382480;28;20363;-73
2022/05/01 18:30:14;;;;;;;5.15;3.72;;;;;;;11.78;54.74;102236.28;10365698;28;20447;-73
2022/05/01 18:35:19;;;;;;;6.93;3.85;;;;;;;11.54;54.78;102234.44;10381294;28;20065;-73
2022/05/01 18:40:19;;;;;;;4.15;3.30;;;;;;;11.37;55.10;102243.63;10379860;28;20034;-73
2022/05/01 18:45:20;;;;;;;6.32;4.72;;;;;;;11.21;55.05;102247.16;10381400;28;20033;-73
2022/05/01 18:50:22;;;;;;;10.52;4.32;;;;;;;11.04;55.55;102257.16;10381385;28;20489;-72
2022/05/01 18:55:25;;;;;;;3.67;3.38;;;;;;;10.90;55.94;102255.94;10362050;28;20041;-72
2022/05/01 19:00:26;;;;;;;4.25;3.95;;;;;;;10.80;56.01;102259.81;10381092;28;20041;-72
2022/05/01 19:05:26;;;;;;;4.88;4.35;;;;;;;10.67;55.97;102260.28;10362637;28;20034;-73
2022/05/01 19:10:38;;;;;;;6.40;4.60;;;;;;;10.56;55.96;102257.88;10380430;28;20122;-72
2022/05/01 19:15:51;;;;;;;6.40;4.18;;;;;;;10.43;56.65;102266.44;10362163;28;20034;-72
2022/05/01 19:21:33;;;;;;;4.85;4.35;;;;;;;10.32;57.21;102272.16;10379629;28;20034;-72
2022/05/01 19:26:40;;;;;;;4.85;4.45;;;;;;;10.18;57.02;102268.19;10349053;28;20125;-72
2022/05/01 19:32:04;;;;;;;5.95;5.15;;;;;;;10.11;57.87;102269.81;10346542;28;20041;-72
2022/05/01 19:37:08;;;;;;;9.80;5.88;;;;;;;10.07;58.77;102271.16;10377743;28;20041;-73
2022/05/01 19:42:24;;;;;;;6.97;5.65;;;;;;;10.00;58.32;102268.25;10345737;28;20032;-73
2022/05/01 19:53:16;;;;;;;8.63;6.28;;;;;;;9.92;59.25;102268.19;10377741;28;20042;-72
2022/05/01 19:58:19;;;;;;;7.65;6.35;;;;;;;9.90;59.72;102271.06;10360161;28;20469;-72
2022/05/01 20:03:21;;;;;;;9.45;7.32;;;;;;;9.91;61.64;102274.63;10346038;28;20030;-73
2022/05/01 20:08:26;;;;;;;11.93;6.80;;;;;;;10.00;62.05;102277.22;10342337;28;20057;-73
2022/05/01 20:13:26;;;;;;;7.32;6.55;;;;;;;10.09;62.41;102275.41;10327701;28;20065;-72
2022/05/01 20:18:51;;;;;;;7.63;6.82;;;;;;;10.21;62.14;102289.50;10344457;28;20042;-72
2022/05/01 20:24:13;;;;;;;9.23;7.82;;;;;;;10.30;61.94;102288.56;10362713;28;20030;-72
2022/05/01 20:29:28;;;;;;;8.77;6.63;;;;;;;10.37;62.65;102283.34;10376710;28;20030;-72
2022/05/01 20:34:47;;;;;;;12.50;7.88;;;;;;;10.41;64.35;102277.47;10345422;28;20033;-72
2022/05/01 20:40:07;;;;;;;9.55;8.45;;;;;;;10.44;62.91;102276.28;10376257;28;20086;-72
2022/05/01 20:45:08;;;;;;;11.43;8.32;;;;;;;10.42;62.62;102273.72;10376313;28;20034;-72
2022/05/01 20:50:11;;;;;;;10.30;8.80;;;;;;;10.36;65.46;102268.97;10376742;28;20171;-73
2022/05/01 20:55:13;;;;;;;11.35;9.50;;;;;;;10.35;65.09;102278.09;10360188;28;20029;-74
2022/05/01 21:00:14;;;;;;;11.82;9.55;;;;;;;10.31;68.93;102275.91;10376571;28;20040;-72
2022/05/01 21:05:14;;;;;;;14.90;10.27;;;;;;;10.30;66.83;102264.19;10375593;28;20029;-73
2022/05/01 21:10:15;;;;;;;21.80;13.00;;;;;;;10.22;66.92;102264.16;10374375;28;20366;-73
2022/05/01 21:15:15;;;;;;;18.95;12.52;;;;;;;10.13;67.35;102262.41;10357507;28;20058;-73
2022/05/01 21:20:15;;;;;;;14.93;12.50;;;;;;;10.03;67.95;102259.81;10357327;28;20351;-72
2022/05/01 21:25:16;;;;;;;16.75;13.55;;;;;;;9.90;68.24;102254.84;10374906;28;20050;-73
2022/05/01 21:35:35;;;;;;;20.58;12.55;;;;;;;9.56;68.03;102254.75;10374533;28;20030;-72
2022/05/01 21:40:36;;;;;;;16.45;13.38;;;;;;;9.41;68.83;102256.31;10341821;28;20026;-73
2022/05/01 21:45:37;;;;;;;19.63;15.57;;;;;;;9.28;68.73;102240.50;10376173;28;20404;-70
2022/05/01 21:50:39;;;;;;;19.20;13.77;;;;;;;9.17;68.86;102243.47;10375692;28;20484;-74
2022/05/01 21:55:39;;;;;;;16.05;14.27;;;;;;;9.06;69.29;102242.72;10358762;28;20048;-75
2022/05/01 22:00:39;;;;;;;20.90;14.30;;;;;;;8.98;70.08;102233.66;10357433;28;20045;-73
2022/05/01 22:05:40;;;;;;;21.45;17.38;;;;;;;8.89;70.46;102235.44;10356839;28;20042;-73
2022/05/01 22:10:43;;;;;;;23.08;16.98;;;;;;;8.83;71.04;102225.22;10377167;28;20045;-73
2022/05/01 22:15:43;;;;;;;21.88;17.35;;;;;;;8.79;72.49;102235.50;10374411;28;20118;-74
2022/05/01 22:20:43;;;;;;;35.42;18.65;;;;;;;8.77;73.17;102225.84;10374005;28;20030;-73
2022/05/01 22:25:44;;;;;;;28.35;21.40;;;;;;;8.74;77.06;102229.72;10357812;28;20033;-70
2022/05/01 22:30:44;;;;;;;30.13;19.60;;;;;;;8.68;80.94;102226.75;10375638;28;20483;-73
2022/05/01 22:41:07;;;;;;;26.63;19.67;;;;;;;8.52;90.39;102217.50;10380792;28;20026;-72
2022/05/01 22:46:07;;;;;;;30.50;22.88;;;;;;;8.44;90.30;102208.47;10381889;28;20076;-73
2022/05/01 22:51:08;;;;;;;23.08;20.60;;;;;;;8.42;88.56;102215.84;10380631;28;20362;-73
2022/05/01 22:56:08;;;;;;;34.78;24.75;;;;;;;8.34;84.03;102219.28;10380132;28;20068;-73
2022/05/01 23:01:09;;;;;;;32.45;23.58;;;;;;;8.21;81.82;102221.47;10362940;28;20038;-72
2022/05/01 23:06:09;;;;;;;56.85;23.70;;;;;;;8.11;81.02;102216.13;10363419;28;20038;-73
2022/05/01 23:11:10;;;;;;;31.08;22.80;;;;;;;8.02;80.20;102223.25;10379488;28;20034;-73
2022/05/01 23:16:10;;;;;;;29.20;21.88;;;;;;;7.94;79.29;102215.03;10380592;28;20104;-73
2022/05/01 23:21:11;;;;;;;32.85;22.95;;;;;;;7.87;79.78;102216.66;10378911;28;20042;-72
2022/05/01 23:26:11;;;;;;;31.02;23.88;;;;;;;7.77;79.00;102215.84;10380373;28;20069;-72
2022/05/01 23:31:11;;;;;;;31.95;22.90;;;;;;;7.67;78.88;102210.47;10378769;28;20495;-73
2022/05/01 23:36:12;;;;;;;24.38;21.75;;;;;;;7.66;78.94;102206.09;10378554;28;20041;-72
2022/05/01 23:41:12;;;;;;;37.83;25.05;;;;;;;7.61;79.35;102193.03;10345472;28;20045;-72
2022/05/01 23:46:13;;;;;;;33.17;23.02;;;;;;;7.62;80.28;102199.25;10378527;28;20375;-72
2022/05/01 23:51:13;;;;;;;27.65;21.60;;;;;;;7.60;80.00;102196.72;10379683;28;20030;-73
2022/05/01 23:56:13;;;;;;;26.38;22.88;;;;;;;7.52;79.15;102193.06;10376385;28;20100;-73
